Time;durP1;ratioP1;P1;durP2;ratioP2;P2;SDS_P1;SDS_P2;PMS_P1;PMS_P2;Temp;Humidity;BMP_temperature;BMP_pressure;BME280_temperature;BME280_humidity;BME280_pressure;Samples;Min_cycle;Max_cycle;Signal;HPM_P1;HPM_P2
2021/10/27 00:00:17;;;;;;;;;;;;;;;20.14;60.16;102131.88;4894051;29;20396;-87
2021/10/27 00:02:42;;;;;;;;;;;;;;;21.38;55.90;102115.88;4893584;29;19927;-88
2021/10/27 00:05:08;;;;;;;;;;;;;;;19.62;60.85;102135.31;4892969;29;19915;-87
2021/10/27 00:07:34;;;;;;;;;;;;;;;20.53;58.65;102119.13;4909726;29;19920;-87
2021/10/27 00:10:00;;;;;;;;;;;;;;;20.01;59.71;102125.44;4892883;29;19922;-88
2021/10/27 00:12:25;;;;;;;;;;;;;;;20.47;58.59;102113.16;4893333;29;19924;-87
2021/10/27 00:14:50;;;;;;;;;;;;;;;20.74;57.95;102120.50;4910254;29;19919;-88
2021/10/27 00:17:16;;;;;;;;;;;;;;;19.73;60.53;102119.03;4894128;29;19915;-87
2021/10/27 00:19:41;;;;;;;;;;;;;;;20.87;57.42;102111.28;4910968;29;19920;-88
2021/10/27 00:22:07;;;;;;;;;;;;;;;20.85;57.16;102115.16;4893423;29;20026;-88
2021/10/27 00:24:32;;;;;;;;;;;;;;;20.13;60.05;102130.09;4893244;29;19923;-88
2021/10/27 00:26:57;;;;;;;;;;;;;;;19.82;60.98;102123.94;4892622;29;19919;-88
2021/10/27 00:29:22;;;;;;;;;;;;;;;20.42;58.94;102121.72;4893651;29;19919;-88
2021/10/27 00:31:48;;;;;;;;;;;;;;;20.62;58.29;102124.97;4893525;29;19920;-88
2021/10/27 00:34:13;;;;;;;;;;;;;;;19.63;61.17;102120.59;4893603;29;19962;-88
2021/10/27 00:36:39;;;;;;;;;;;;;;;20.40;58.74;102115.47;4893334;29;19930;-88
2021/10/27 00:39:04;;;;;;;;;;;;;;;20.65;58.48;102108.25;4893481;29;19959;-87
2021/10/27 00:41:29;;;;;;;;;;;;;;;20.04;60.42;102110.63;4892791;29;19923;-87
2021/10/27 00:43:55;;;;;;;;;;;;;;;20.38;59.64;102113.81;4893204;29;20293;-88
2021/10/27 00:46:22;;;;;;;;;;;;;;;20.26;60.43;102112.78;4893596;29;20301;-88
2021/10/27 00:48:47;;;;;;;;;;;;;;;20.26;59.89;102113.69;4893941;29;19920;-88
2021/10/27 00:51:13;;;;;;;;;;;;;;;20.56;59.08;102117.16;4900668;29;19995;-87
2021/10/27 00:53:39;;;;;;;;;;;;;;;18.82;64.89;102126.66;4904659;29;19919;-87
2021/10/27 00:56:04;;;;;;;;;;;;;;;19.58;63.53;102118.16;4918616;29;19919;-87
2021/10/27 00:58:29;;;;;;;;;;;;;;;19.39;64.33;102120.34;4895416;29;19919;-88
2021/10/27 01:00:55;;;;;;;;;;;;;;;19.64;63.33;102127.84;4894374;29;19923;-86
2021/10/27 01:03:20;;;;;;;;;;;;;;;20.32;61.34;102120.59;4913839;29;19919;-87
2021/10/27 01:05:45;;;;;;;;;;;;;;;20.01;61.21;102125.44;4897701;29;19955;-88
2021/10/27 01:08:11;;;;;;;;;;;;;;;19.63;62.02;102128.84;4897273;29;19915;-86
2021/10/27 01:10:36;;;;;;;;;;;;;;;20.34;60.96;102115.91;4897330;29;19923;-87
2021/10/27 01:13:01;;;;;;;;;;;;;;;19.98;61.78;102123.78;4896685;29;19954;-87
2021/10/27 01:15:27;;;;;;;;;;;;;;;20.99;58.67;102119.66;4897005;29;19931;-87
2021/10/27 01:17:52;;;;;;;;;;;;;;;19.96;61.04;102131.25;4897087;29;20059;-87
2021/10/27 01:20:18;;;;;;;;;;;;;;;20.67;58.21;102120.94;4896397;29;19982;-87
2021/10/27 01:22:43;;;;;;;;;;;;;;;21.02;57.46;102131.31;4897076;29;19966;-87
2021/10/27 01:25:10;;;;;;;;;;;;;;;19.30;62.52;102146.50;4912438;29;19964;-88
2021/10/27 01:27:45;;;;;;;;;;;;;;;19.85;62.66;102135.69;4897145;29;19920;-87
2021/10/27 01:30:18;;;;;;;;;;;;;;;19.93;62.16;102136.03;4897034;29;19919;-87
2021/10/27 01:32:44;;;;;;;;;;;;;;;19.68;63.19;102131.28;4912381;29;20040;-86
2021/10/27 01:35:10;;;;;;;;;;;;;;;20.60;60.27;102135.19;4895873;29;19919;-86
2021/10/27 01:37:36;;;;;;;;;;;;;;;19.92;61.47;102134.31;4896802;29;19916;-87
2021/10/27 01:40:02;;;;;;;;;;;;;;;20.52;60.27;102131.09;4912704;29;19966;-87
2021/10/27 01:42:27;;;;;;;;;;;;;;;20.34;60.83;102143.38;4895876;29;19927;-88
2021/10/27 01:44:53;;;;;;;;;;;;;;;20.27;60.78;102134.66;4896949;29;19919;-88
2021/10/27 01:47:19;;;;;;;;;;;;;;;19.21;64.05;102130.63;4896402;29;19920;-87
2021/10/27 01:49:44;;;;;;;;;;;;;;;19.77;61.36;102122.44;4895491;29;19920;-87
2021/10/27 01:52:09;;;;;;;;;;;;;;;20.25;60.32;102109.16;4896674;29;19927;-87
2021/10/27 01:54:35;;;;;;;;;;;;;;;20.74;58.67;102120.50;4897311;29;19919;-87
2021/10/27 01:57:00;;;;;;;;;;;;;;;19.37;62.71;102123.19;4896413;29;19920;-87
2021/10/27 01:59:25;;;;;;;;;;;;;;;20.21;59.36;102109.47;4896026;29;19983;-88
2021/10/27 02:01:51;;;;;;;;;;;;;;;20.12;59.79;102111.84;4895075;29;19919;-87
2021/10/27 02:04:19;;;;;;;;;;;;;;;20.71;57.99;102108.75;4893021;29;19927;-87
2021/10/27 02:06:45;;;;;;;;;;;;;;;19.50;60.96;102117.78;4908051;29;19919;-88
2021/10/27 02:09:10;;;;;;;;;;;;;;;19.82;61.17;102118.44;4910206;29;20437;-87
2021/10/27 02:11:36;;;;;;;;;;;;;;;20.15;60.29;102100.66;4893528;29;19926;-87
2021/10/27 02:14:01;;;;;;;;;;;;;;;20.41;58.37;102103.50;4892452;29;19958;-87
2021/10/27 02:16:27;;;;;;;;;;;;;;;20.31;58.95;102088.63;4894013;29;19997;-88
2021/10/27 02:18:53;;;;;;;;;;;;;;;20.35;58.48;102088.31;4892683;29;19927;-88
2021/10/27 02:21:19;;;;;;;;;;;;;;;20.18;58.33;102097.72;4893023;29;19979;-87
2021/10/27 02:23:44;;;;;;;;;;;;;;;19.43;62.46;102088.97;4908475;29;19942;-88
2021/10/27 02:26:10;;;;;;;;;;;;;;;19.69;60.73;102089.09;4909827;29;19915;-88
2021/10/27 02:28:37;;;;;;;;;;;;;;;20.08;58.53;102092.94;4893417;29;19926;-88
2021/10/27 02:31:03;;;;;;;;;;;;;;;19.96;60.99;102092.78;4908984;29;19923;-88
2021/10/27 02:33:28;;;;;;;;;;;;;;;19.23;61.15;102093.00;4893184;29;19922;-87
2021/10/27 02:35:54;;;;;;;;;;;;;;;19.87;59.48;102095.25;4891828;29;19975;-87
2021/10/27 02:38:19;;;;;;;;;;;;;;;19.78;60.30;102083.06;4893177;29;19927;-86
2021/10/27 02:40:45;;;;;;;;;;;;;;;19.83;59.02;102089.09;4909824;29;20051;-87
2021/10/27 02:43:10;;;;;;;;;;;;;;;19.99;59.96;102081.59;4892745;29;19930;-88
2021/10/27 02:45:35;;;;;;;;;;;;;;;20.50;57.42;102088.22;4892602;29;19932;-87
2021/10/27 02:48:00;;;;;;;;;;;;;;;19.05;61.39;102093.22;4892140;29;19904;-87
2021/10/27 02:50:25;;;;;;;;;;;;;;;20.18;58.20;102091.31;4891460;29;19919;-87
2021/10/27 02:52:51;;;;;;;;;;;;;;;19.73;59.74;102105.31;4890864;29;20351;-87
2021/10/27 02:55:16;;;;;;;;;;;;;;;19.58;60.21;102107.19;4891926;29;19919;-88
2021/10/27 02:57:41;;;;;;;;;;;;;;;19.36;61.25;102110.44;4892665;29;19931;-87
2021/10/27 03:00:07;;;;;;;;;;;;;;;19.04;61.76;102109.78;4909507;29;20020;-88
2021/10/27 03:02:34;;;;;;;;;;;;;;;19.71;60.95;102101.75;4892683;29;19924;-88
2021/10/27 03:05:00;;;;;;;;;;;;;;;19.45;60.72;102107.09;4892745;29;19903;-87
2021/10/27 03:07:29;;;;;;;;;;;;;;;20.06;59.45;102106.78;4892294;29;19930;-87
2021/10/27 03:09:54;;;;;;;;;;;;;;;20.12;59.36;102105.47;4891806;29;20293;-88
2021/10/27 03:12:19;;;;;;;;;;;;;;;19.22;62.59;102114.09;4908440;29;19919;-88
2021/10/27 03:14:45;;;;;;;;;;;;;;;19.99;60.12;102108.19;4908598;29;19926;-87
2021/10/27 03:17:10;;;;;;;;;;;;;;;19.92;59.84;102098.59;4892636;29;19930;-87
2021/10/27 03:19:36;;;;;;;;;;;;;;;19.64;60.83;102103.13;4892270;29;19919;-88
2021/10/27 03:22:01;;;;;;;;;;;;;;;20.56;58.01;102101.53;4891898;29;19924;-88
2021/10/27 03:24:27;;;;;;;;;;;;;;;20.54;57.28;102107.13;4891534;29;20015;-87
2021/10/27 03:26:52;;;;;;;;;;;;;;;19.52;60.83;102110.34;4892335;29;19947;-87
2021/10/27 03:29:17;;;;;;;;;;;;;;;20.27;58.52;102109.06;4891922;29;19920;-87
2021/10/27 03:31:42;;;;;;;;;;;;;;;20.11;59.45;102118.34;4892005;29;19924;-88
2021/10/27 03:34:07;;;;;;;;;;;;;;;19.78;60.53;102111.38;4893011;29;19966;-87
2021/10/27 03:36:33;;;;;;;;;;;;;;;20.10;59.67;102113.81;4893349;29;19920;-88
2021/10/27 03:38:58;;;;;;;;;;;;;;;19.64;61.36;102111.38;4892419;29;20263;-88
2021/10/27 03:41:23;;;;;;;;;;;;;;;19.74;60.88;102115.28;4892756;29;19919;-87
2021/10/27 03:43:48;;;;;;;;;;;;;;;20.64;57.26;102121.13;4892413;29;19923;-88
2021/10/27 03:46:14;;;;;;;;;;;;;;;20.68;56.81;102110.81;4891944;29;19990;-87
2021/10/27 03:48:40;;;;;;;;;;;;;;;20.09;58.46;102122.19;4892200;29;20377;-87
2021/10/27 03:51:08;;;;;;;;;;;;;;;19.74;60.62;102115.28;4891894;29;19923;-87
2021/10/27 03:53:33;;;;;;;;;;;;;;;19.18;62.53;102111.63;4907514;29;19929;-88
2021/10/27 03:55:58;;;;;;;;;;;;;;;19.64;60.33;102108.63;4891823;29;20364;-87
2021/10/27 03:58:25;;;;;;;;;;;;;;;20.00;58.89;102116.34;4892856;29;19929;-87
2021/10/27 04:00:50;;;;;;;;;;;;;;;20.04;59.02;102107.88;4893764;29;19923;-87
2021/10/27 04:03:22;;;;;;;;;;;;;;;19.91;59.42;102107.81;4894195;29;20407;-86
2021/10/27 04:05:48;;;;;;;;;;;;;;;20.01;58.85;102107.09;4896712;29;19935;-87
2021/10/27 04:08:13;;;;;;;;;;;;;;;20.92;55.92;102108.19;4904406;29;19924;-86
2021/10/27 04:10:38;;;;;;;;;;;;;;;19.90;62.93;102111.53;4920826;29;19919;-87
2021/10/27 04:13:03;;;;;;;;;;;;;;;18.81;62.38;102111.16;4893960;29;20027;-87
2021/10/27 04:15:29;;;;;;;;;;;;;;;20.12;59.39;102103.59;4894147;29;19926;-87
2021/10/27 04:17:54;;;;;;;;;;;;;;;19.76;59.34;102116.06;4908844;29;19979;-88
2021/10/27 04:20:19;;;;;;;;;;;;;;;19.85;59.52;102108.22;4893991;29;20070;-85
2021/10/27 04:22:44;;;;;;;;;;;;;;;19.64;59.90;102114.13;4908259;29;19939;-87
2021/10/27 04:25:12;;;;;;;;;;;;;;;20.47;57.06;102111.31;4893043;29;20388;-87
2021/10/27 04:27:38;;;;;;;;;;;;;;;19.76;58.07;102118.81;4892939;29;19991;-87
2021/10/27 04:30:04;;;;;;;;;;;;;;;20.16;57.39;102110.66;4892088;29;20010;-87
2021/10/27 04:32:30;;;;;;;;;;;;;;;20.46;55.76;102117.78;4892168;29;19966;-87
2021/10/27 04:34:56;;;;;;;;;;;;;;;19.77;57.99;102126.09;4909010;29;19959;-88
2021/10/27 04:37:21;;;;;;;;;;;;;;;19.68;58.94;102120.31;4890909;29;19931;-86
2021/10/27 04:39:46;;;;;;;;;;;;;;;20.58;56.26;102115.16;4891900;29;20019;-86
2021/10/27 04:42:12;;;;;;;;;;;;;;;20.29;56.69;102120.81;4891697;29;19962;-85
2021/10/27 04:44:37;;;;;;;;;;;;;;;21.11;53.96;102118.75;4907945;29;20069;-86
2021/10/27 04:47:03;;;;;;;;;;;;;;;19.89;57.34;102118.03;4893337;29;20014;-87
2021/10/27 04:49:32;;;;;;;;;;;;;;;20.20;56.34;102119.59;4892257;29;19920;-86
2021/10/27 04:51:57;;;;;;;;;;;;;;;19.56;57.37;102131.09;4892410;29;19934;-85
2021/10/27 04:54:28;;;;;;;;;;;;;;;20.17;56.51;102117.94;4907767;29;19959;-86
2021/10/27 04:56:53;;;;;;;;;;;;;;;20.68;55.12;102114.47;4890970;29;19932;-90
2021/10/27 04:59:20;;;;;;;;;;;;;;;19.93;56.35;102114.06;4890280;29;19972;-86
2021/10/27 05:01:48;;;;;;;;;;;;;;;20.40;55.67;102111.84;4908427;29;19975;-89
2021/10/27 05:04:15;;;;;;;;;;;;;;;19.34;58.80;102117.91;4890111;29;20010;-87
2021/10/27 05:06:40;;;;;;;;;;;;;;;20.11;57.55;102111.94;4907667;29;19954;-88
2021/10/27 05:09:07;;;;;;;;;;;;;;;19.97;56.79;102110.16;4907094;29;19915;-88
2021/10/27 05:11:32;;;;;;;;;;;;;;;20.36;56.06;102114.78;4889236;29;19982;-88
2021/10/27 05:13:57;;;;;;;;;;;;;;;21.24;53.11;102122.41;4890555;29;20390;-89
2021/10/27 05:16:22;;;;;;;;;;;;;;;19.96;56.60;102125.75;4889597;29;19930;-84
2021/10/27 05:18:48;;;;;;;;;;;;;;;20.82;54.07;102123.59;4888876;29;20289;-89
2021/10/27 05:21:13;;;;;;;;;;;;;;;19.33;58.57;102120.75;4905323;29;20255;-90
2021/10/27 05:23:38;;;;;;;;;;;;;;;20.44;55.28;102125.28;4887447;29;19940;-85
2021/10/27 05:26:05;;;;;;;;;;;;;;;20.44;55.32;102119.78;4904873;29;19934;-87
2021/10/27 05:28:30;;;;;;;;;;;;;;;20.01;56.48;102117.19;4887558;29;19975;-89
2021/10/27 05:30:55;;;;;;;;;;;;;;;19.99;56.13;102116.44;4886637;29;19962;-88
2021/10/27 05:33:23;;;;;;;;;;;;;;;19.91;57.19;102118.81;4886780;29;19945;-88
2021/10/27 05:35:48;;;;;;;;;;;;;;;19.85;56.92;102116.47;4887479;29;19943;-89
2021/10/27 05:38:16;;;;;;;;;;;;;;;20.52;55.13;102111.88;4891155;29;19919;-86
2021/10/27 05:40:42;;;;;;;;;;;;;;;20.24;56.00;102112.00;4905039;29;20299;-86
2021/10/27 05:43:13;;;;;;;;;;;;;;;20.53;55.57;102119.13;4886576;29;19923;-86
2021/10/27 05:45:38;;;;;;;;;;;;;;;20.50;54.72;102113.84;4903255;29;19919;-85
2021/10/27 05:48:06;;;;;;;;;;;;;;;20.66;54.13;102118.31;4894478;29;19961;-86
2021/10/27 05:55:41;;;;;;;;;;;;;;;19.91;56.82;102116.06;4912670;29;19927;-84
2021/10/27 05:58:09;;;;;;;;;;;;;;;20.34;55.53;102119.50;4889184;29;19919;-82
2021/10/27 06:00:35;;;;;;;;;;;;;;;20.48;54.40;102123.19;4892621;29;20030;-87
2021/10/27 06:03:01;;;;;;;;;;;;;;;20.18;55.31;102113.31;4909667;29;19919;-85
2021/10/27 06:05:27;;;;;;;;;;;;;;;19.59;56.52;102128.16;4908687;29;19963;-84
2021/10/27 06:07:52;;;;;;;;;;;;;;;20.34;55.17;102129.63;4904665;29;19980;-84
2021/10/27 06:10:22;;;;;;;;;;;;;;;20.14;55.29;102122.72;4905094;29;19919;-84
2021/10/27 06:12:55;;;;;;;;;;;;;;;20.35;55.17;102131.38;4905336;29;19968;-86
2021/10/27 06:15:22;;;;;;;;;;;;;;;19.78;56.75;102132.47;4904581;29;20441;-84
2021/10/27 06:17:48;;;;;;;;;;;;;;;19.71;57.25;102133.84;4903206;29;19919;-80
2021/10/27 06:20:13;;;;;;;;;;;;;;;19.77;57.69;102131.59;4905707;29;19920;-83
2021/10/27 06:22:38;;;;;;;;;;;;;;;19.89;56.37;102143.63;4890199;29;19919;-86
2021/10/27 06:25:05;;;;;;;;;;;;;;;19.68;57.52;102132.16;4888893;29;19919;-88
2021/10/27 06:27:30;;;;;;;;;;;;;;;19.59;58.33;102132.75;4904937;29;19959;-86
2021/10/27 06:30:14;;;;;;;;;;;;;;;20.51;55.14;102137.56;4905206;29;19919;-87
2021/10/27 06:32:57;;;;;;;;;;;;;;;19.62;57.53;102147.16;4905343;29;19926;-84
2021/10/27 06:35:32;;;;;;;;;;;;;;;19.87;57.36;102153.84;4888548;29;20007;-87
2021/10/27 06:38:20;;;;;;;;;;;;;;;19.17;58.48;102154.63;4888098;29;19938;-87
2021/10/27 06:48:54;;;;;;;;;;;;;;;19.94;56.72;102170.78;4905066;29;19926;-86
2021/10/27 06:51:19;;;;;;;;;;;;;;;20.02;56.11;102179.41;4888237;29;19927;-87
2021/10/27 06:53:44;;;;;;;;;;;;;;;21.05;53.06;102179.75;4902849;29;20014;-88
2021/10/27 06:56:12;;;;;;;;;;;;;;;20.16;56.16;102186.72;4902754;29;19920;-87
2021/10/27 06:58:51;;;;;;;;;;;;;;;19.72;58.14;102182.28;4901953;29;19982;-87
2021/10/27 07:01:26;;;;;;;;;;;;;;;20.29;56.48;102178.53;4887060;29;19920;-87
2021/10/27 07:15:03;;;;;;;;;;;;;;;19.88;57.39;102182.19;4910560;29;19944;-87
2021/10/27 07:17:29;;;;;;;;;;;;;;;20.22;55.90;102182.69;4900953;29;19924;-86
2021/10/27 07:19:55;;;;;;;;;;;;;;;21.33;52.32;102181.41;4897863;29;19919;-88
2021/10/27 07:22:20;;;;;;;;;;;;;;;19.91;56.77;102188.34;4895549;29;19927;-86
2021/10/27 07:24:45;;;;;;;;;;;;;;;19.79;57.40;102194.63;4904812;29;19995;-87
2021/10/27 07:27:12;;;;;;;;;;;;;;;20.03;55.79;102197.63;4904976;29;19920;-86
2021/10/27 07:29:38;;;;;;;;;;;;;;;19.65;56.83;102198.25;4888033;29;20026;-86
2021/10/27 07:32:05;;;;;;;;;;;;;;;20.51;54.84;102189.81;4887605;29;20298;-87
2021/10/27 07:34:34;;;;;;;;;;;;;;;19.76;57.06;102197.56;4887879;29;19950;-88
2021/10/27 07:40:03;;;;;;;;;;;;;;;19.17;58.95;102192.16;4905285;29;19930;-87
2021/10/27 07:42:29;;;;;;;;;;;;;;;20.89;54.19;102191.84;4886361;29;19971;-87
2021/10/27 07:44:54;;;;;;;;;;;;;;;20.68;54.17;102204.31;4887092;29;20286;-88
2021/10/27 07:47:20;;;;;;;;;;;;;;;21.08;53.72;102200.66;4886699;29;19919;-89
2021/10/27 07:49:47;;;;;;;;;;;;;;;20.12;55.28;102208.00;4887015;29;20003;-87
2021/10/27 07:52:12;;;;;;;;;;;;;;;21.20;52.14;102210.81;4902559;29;19932;-87
2021/10/27 07:54:38;;;;;;;;;;;;;;;20.21;55.55;102213.88;4903037;29;19927;-87
2021/10/27 07:57:04;;;;;;;;;;;;;;;19.69;57.23;102213.56;4886898;29;19920;-87
2021/10/27 07:59:30;;;;;;;;;;;;;;;20.37;54.74;102200.88;4903657;29;19919;-87
2021/10/27 08:01:56;;;;;;;;;;;;;;;20.50;53.88;102207.31;4887910;29;19967;-88
2021/10/27 08:04:22;;;;;;;;;;;;;;;21.05;52.88;102201.75;4886965;29;19923;-86
2021/10/27 08:06:47;;;;;;;;;;;;;;;19.56;55.85;102205.22;4888523;29;19916;-87
2021/10/27 08:09:15;;;;;;;;;;;;;;;20.19;54.85;102209.38;4888430;29;20079;-87
2021/10/27 08:11:41;;;;;;;;;;;;;;;21.62;50.33;102203.22;4886599;29;19980;-87
2021/10/27 08:14:06;;;;;;;;;;;;;;;20.55;53.39;102212.50;4886626;29;19919;-87
2021/10/27 08:16:33;;;;;;;;;;;;;;;20.54;53.20;102214.34;4886145;29;20361;-87
2021/10/27 08:18:58;;;;;;;;;;;;;;;20.42;52.83;102217.94;4902903;29;19939;-87
2021/10/27 08:21:24;;;;;;;;;;;;;;;20.52;53.36;102216.34;4902037;29;20419;-86
2021/10/27 08:23:51;;;;;;;;;;;;;;;20.83;52.07;102218.88;4885931;29;19919;-86
2021/10/27 08:26:20;;;;;;;;;;;;;;;21.25;50.92;102208.59;4886348;29;19920;-86
2021/10/27 08:28:53;;;;;;;;;;;;;;;20.83;51.75;102218.88;4886500;29;19919;-86
2021/10/27 08:36:18;;;;;;;;;;;;;;;20.02;53.90;102228.84;4903942;29;19920;-86
2021/10/27 08:38:43;;;;;;;;;;;;;;;20.48;53.38;102220.25;4887099;29;19920;-87
2021/10/27 08:41:08;;;;;;;;;;;;;;;21.37;50.68;102217.84;4885727;29;19920;-87
2021/10/27 08:43:33;;;;;;;;;;;;;;;20.68;52.02;102218.06;4887726;29;19919;-87
2021/10/27 08:46:01;;;;;;;;;;;;;;;20.87;51.43;102221.31;4887328;29;19919;-87
2021/10/27 08:48:30;;;;;;;;;;;;;;;19.94;53.64;102225.72;4886616;29;19907;-86
2021/10/27 08:50:55;;;;;;;;;;;;;;;21.45;50.14;102212.66;4887246;29;19928;-86
2021/10/27 08:53:23;;;;;;;;;;;;;;;20.60;52.31;102228.69;4885436;29;19926;-86
2021/10/27 08:55:51;;;;;;;;;;;;;;;20.85;52.07;102220.53;4901723;29;19926;-87
2021/10/27 08:58:24;;;;;;;;;;;;;;;21.83;49.08;102221.91;4902094;29;19923;-87
2021/10/27 09:01:00;;;;;;;;;;;;;;;20.50;52.41;102217.41;4885383;29;19975;-86
2021/10/27 09:06:07;;;;;;;;;;;;;;;21.27;50.64;102228.63;4902494;29;19923;-85
2021/10/27 09:14:50;;;;;;;;;;;;;;;21.02;50.94;102229.50;4901452;29;19927;-85
2021/10/27 09:39:45;;;;;;;;;;;;;;;20.43;52.93;102240.81;4904767;29;19919;-86
2021/10/27 09:46:02;;;;;;;;;;;;;;;20.27;53.78;102232.72;4906949;29;19925;-89
2021/10/27 09:55:28;;;;;;;;;;;;;;;20.67;52.70;102238.31;4906366;29;19927;-89
2021/10/27 09:56:41;;;;;;;;;;;;;;;21.22;51.16;102248.22;4906627;29;20032;-87
2021/10/27 10:06:51;;;;;;;;;;;;;;;20.52;52.87;102260.31;4907800;29;19915;-87
2021/10/27 10:09:16;;;;;;;;;;;;;;;20.61;52.45;102264.31;4907620;29;19919;-88
2021/10/27 10:11:42;;;;;;;;;;;;;;;20.62;53.22;102265.19;4890500;29;19926;-87
2021/10/27 10:14:09;;;;;;;;;;;;;;;20.89;51.54;102260.59;4889213;29;19920;-88
2021/10/27 10:16:48;;;;;;;;;;;;;;;20.87;52.28;102265.31;4889018;29;20223;-88
2021/10/27 10:19:15;;;;;;;;;;;;;;;21.02;51.89;102257.00;4890002;29;19920;-88
2021/10/27 10:21:41;;;;;;;;;;;;;;;21.56;50.07;102253.25;4905067;29;19927;-88
2021/10/27 10:24:16;;;;;;;;;;;;;;;20.81;51.64;102260.25;4891223;29;19908;-87
2021/10/27 10:26:42;;;;;;;;;;;;;;;20.42;52.77;102264.66;4895251;29;19911;-87
2021/10/27 10:29:08;;;;;;;;;;;;;;;20.97;51.25;102253.66;4907214;29;19933;-86
2021/10/27 10:31:36;;;;;;;;;;;;;;;21.42;50.58;102259.69;4920715;29;19924;-85
2021/10/27 10:34:07;;;;;;;;;;;;;;;21.34;50.03;102262.13;4895759;29;20274;-87
2021/10/27 10:36:36;;;;;;;;;;;;;;;21.56;49.52;102270.63;4891041;29;19924;-87
2021/10/27 10:39:24;;;;;;;;;;;;;;;21.54;50.09;102271.72;4888619;29;20010;-89
2021/10/27 10:42:19;;;;;;;;;;;;;;;21.31;49.68;102267.84;4905926;29;19948;-87
2021/10/27 10:45:20;;;;;;;;;;;;;;;20.35;51.79;102285.28;4889021;29;19919;-85
2021/10/27 10:59:39;;;;;;;;;;;;;;;20.49;50.87;102287.16;4904111;29;19935;-86
2021/10/27 11:25:27;;;;;;;;;;;;;;;20.50;52.84;102266.91;4907122;29;20018;-85
2021/10/27 11:38:50;;;;;;;;;;;;;;;20.55;52.69;102253.75;4903692;29;19926;-87
2021/10/27 11:41:40;;;;;;;;;;;;;;;19.83;54.21;102246.50;4887037;29;19919;-84
2021/10/27 11:44:13;;;;;;;;;;;;;;;20.40;52.96;102241.03;4888035;29;19927;-86
2021/10/27 11:47:00;;;;;;;;;;;;;;;20.89;51.38;102235.84;4887160;29;19990;-85
2021/10/27 11:49:35;;;;;;;;;;;;;;;20.12;53.63;102240.09;4887204;29;19932;-88
2021/10/27 11:52:00;;;;;;;;;;;;;;;20.96;51.97;102228.03;4883840;29;19967;-86
2021/10/27 11:54:27;;;;;;;;;;;;;;;20.81;51.52;102235.47;4921596;29;19926;-86
2021/10/27 11:56:53;;;;;;;;;;;;;;;20.79;51.38;102234.72;4906184;29;19929;-87
2021/10/27 11:59:19;;;;;;;;;;;;;;;20.24;52.79;102231.03;4923395;29;20018;-85
2021/10/27 12:01:51;;;;;;;;;;;;;;;20.08;53.67;102224.81;4906395;29;19919;-83
2021/10/27 12:04:17;;;;;;;;;;;;;;;20.03;53.64;102224.22;4905606;29;20037;-86
2021/10/27 12:06:51;;;;;;;;;;;;;;;20.42;52.15;102228.94;4906464;29;19967;-81
2021/10/27 12:09:44;;;;;;;;;;;;;;;21.55;50.32;102218.44;4904689;29;19974;-86
2021/10/27 12:12:31;;;;;;;;;;;;;;;21.29;50.31;102226.66;4903242;29;20019;-88
2021/10/27 12:17:59;;;;;;;;;;;;;;;20.71;52.44;102220.59;4920405;29;19926;-84
2021/10/27 12:20:32;;;;;;;;;;;;;;;20.33;53.42;102218.56;4904947;29;19919;-84
2021/10/27 12:22:57;;;;;;;;;;;;;;;20.24;53.39;102210.94;4908370;29;19926;-83
2021/10/27 12:25:23;;;;;;;;;;;;;;;19.96;54.14;102215.53;4910316;29;20026;-87
2021/10/27 12:27:48;;;;;;;;;;;;;;;21.48;50.30;102200.53;4910876;29;20018;-86
2021/10/27 12:30:17;;;;;;;;;;;;;;;20.46;52.24;102191.13;4909120;29;19930;-82
2021/10/27 12:32:49;;;;;;;;;;;;;;;20.50;52.57;102204.56;4904929;29;20112;-85
2021/10/27 12:35:16;;;;;;;;;;;;;;;21.24;50.21;102191.19;4924678;29;19972;-85
2021/10/27 12:40:25;;;;;;;;;;;;;;;21.09;50.48;102188.66;4921900;29;19970;-88
2021/10/27 12:43:07;;;;;;;;;;;;;;;21.26;50.37;102185.59;4903402;29;19923;-85
2021/10/27 12:45:33;;;;;;;;;;;;;;;21.29;49.69;102185.38;4905238;29;19919;-88
2021/10/27 12:48:03;;;;;;;;;;;;;;;20.91;51.16;102177.97;4921571;29;19973;-87
2021/10/27 12:50:32;;;;;;;;;;;;;;;21.54;49.92;102180.84;4919216;29;19942;-85
2021/10/27 12:53:02;;;;;;;;;;;;;;;21.50;49.68;102171.94;4903115;29;19919;-85
2021/10/27 12:55:29;;;;;;;;;;;;;;;21.16;50.13;102173.47;4903379;29;19919;-85
2021/10/27 12:58:07;;;;;;;;;;;;;;;21.30;49.47;102177.97;4919173;29;19974;-81
2021/10/27 13:00:51;;;;;;;;;;;;;;;21.48;48.78;102171.13;4902633;29;19924;-82
2021/10/27 13:05:50;;;;;;;;;;;;;;;21.70;48.40;102170.47;4889446;29;19947;-84
2021/10/27 13:08:49;;;;;;;;;;;;;;;21.90;48.13;102168.13;4902394;29;19923;-82
2021/10/27 13:13:57;;;;;;;;;;;;;;;22.11;47.45;102165.63;4887199;29;19966;-82
2021/10/27 13:29:43;;;;;;;;;;;;;;;22.27;46.74;102166.22;4901315;29;19926;-81
2021/10/27 13:32:15;;;;;;;;;;;;;;;21.29;49.25;102173.44;4919764;29;19919;-84
2021/10/27 13:34:40;;;;;;;;;;;;;;;21.08;49.67;102157.50;4890695;29;19927;-81
2021/10/27 13:37:09;;;;;;;;;;;;;;;21.36;48.96;102166.53;4917300;29;19927;-83
2021/10/27 13:39:35;;;;;;;;;;;;;;;21.51;48.47;102164.56;4882669;29;19919;-80
2021/10/27 13:42:05;;;;;;;;;;;;;;;21.14;49.32;102164.47;4880020;29;19947;-81
2021/10/27 13:44:35;;;;;;;;;;;;;;;21.21;48.91;102163.91;4874090;29;19968;-82
2021/10/27 13:47:20;;;;;;;;;;;;;;;21.39;48.90;102161.69;4891980;29;19923;-87
2021/10/27 13:57:43;;;;;;;;;;;;;;;20.80;50.50;102170.44;4878356;29;20006;-82
2021/10/27 14:06:17;;;;;;;;;;;;;;;20.95;49.97;102167.63;4893218;29;19942;-83
2021/10/27 14:08:48;;;;;;;;;;;;;;;20.77;50.35;102159.66;4880070;29;20014;-85
2021/10/27 14:19:12;;;;;;;;;;;;;;;20.98;50.36;102161.91;4904341;29;19926;-82
2021/10/27 15:21:44;;;;;;;;;;;;;;;19.50;51.76;102145.22;4902113;29;19930;-83
2021/10/27 15:30:03;;;;;;;;;;;;;;;20.24;49.88;102126.63;4903557;29;20405;-86
2021/10/27 15:43:11;;;;;;;;;;;;;;;19.98;49.64;102122.91;4905720;29;19930;-84
2021/10/27 15:50:51;;;;;;;;;;;;;;;18.78;52.52;102134.16;4901444;29;19934;-82
2021/10/27 15:53:17;;;;;;;;;;;;;;;18.91;51.93;102131.59;4915614;29;20369;-84
2021/10/27 15:55:42;;;;;;;;;;;;;;;18.92;52.48;102144.34;4885301;29;19919;-86
2021/10/27 15:58:08;;;;;;;;;;;;;;;19.37;51.26;102145.16;4887021;29;19934;-87
2021/10/27 16:00:38;;;;;;;;;;;;;;;19.20;52.05;102142.59;4887332;29;20373;-86
2021/10/27 16:03:03;;;;;;;;;;;;;;;19.37;50.51;102134.16;4887910;29;20285;-88
2021/10/27 16:05:28;;;;;;;;;;;;;;;20.56;48.26;102141.88;4887300;29;19948;-89
2021/10/27 16:07:54;;;;;;;;;;;;;;;20.49;48.36;102139.56;4887746;29;20027;-84
2021/10/27 16:10:21;;;;;;;;;;;;;;;20.11;48.79;102140.31;4885412;29;19962;-83
2021/10/27 16:12:46;;;;;;;;;;;;;;;19.01;51.47;102143.75;4885895;29;19919;-85
2021/10/27 16:15:16;;;;;;;;;;;;;;;19.25;50.79;102130.34;4904230;29;19927;-85
2021/10/27 16:17:42;;;;;;;;;;;;;;;19.60;50.18;102137.28;4903110;29;20285;-84
2021/10/27 16:20:08;;;;;;;;;;;;;;;19.30;51.23;102132.78;4901834;29;19991;-83
2021/10/27 16:22:34;;;;;;;;;;;;;;;19.40;50.76;102122.09;4886333;29;19937;-86
2021/10/27 16:24:59;;;;;;;;;;;;;;;18.95;51.84;102122.19;4885719;29;19920;-84
2021/10/27 16:27:25;;;;;;;;;;;;;;;19.18;50.51;102123.47;4915978;29;19954;-84
2021/10/27 16:29:50;;;;;;;;;;;;;;;18.76;52.23;102116.94;4885513;29;19920;-86
2021/10/27 16:32:15;;;;;;;;;;;;;;;18.58;52.97;102124.44;4885245;29;19930;-86
2021/10/27 16:34:41;;;;;;;;;;;;;;;19.04;51.85;102126.22;4916895;29;19967;-84
2021/10/27 16:37:06;;;;;;;;;;;;;;;19.38;50.70;102124.94;4918593;29;19927;-86
2021/10/27 16:39:31;;;;;;;;;;;;;;;18.62;52.49;102126.03;4884208;29;20289;-85
2021/10/27 16:41:57;;;;;;;;;;;;;;;18.81;52.25;102120.28;4890673;29;19930;-85
2021/10/27 16:44:23;;;;;;;;;;;;;;;19.48;50.61;102117.88;4903093;29;19955;-86
2021/10/27 16:46:49;;;;;;;;;;;;;;;18.53;52.43;102118.38;4896897;29;19920;-86
2021/10/27 16:49:14;;;;;;;;;;;;;;;18.91;51.86;102117.88;4928616;29;19919;-86
2021/10/27 16:51:39;;;;;;;;;;;;;;;19.11;50.98;102125.75;4886296;29;19923;-85